Time;durP1;ratioP1;P1;durP2;ratioP2;P2;SDS_P1;SDS_P2;PMS_P1;PMS_P2;Temp;Humidity;BMP_temperature;BMP_pressure;BME280_temperature;BME280_humidity;BME280_pressure;Samples;Min_cycle;Max_cycle;Signal;HPM_P1;HPM_P2
2023/06/02 00:01:24;;;;;;;12.50;9.30;;;;;;;14.48;88.38;98555.34;109362;1253;58969;-72
2023/06/02 00:03:53;;;;;;;12.40;9.70;;;;;;;14.44;88.76;98550.73;109346;1254;67131;-73
2023/06/02 00:06:20;;;;;;;14.70;9.60;;;;;;;14.36;89.47;98553.36;109365;1253;59961;-73
2023/06/02 00:08:47;;;;;;;14.60;9.90;;;;;;;14.27;89.76;98554.83;109347;1253;65291;-72
2023/06/02 00:11:14;;;;;;;13.70;10.20;;;;;;;14.20;90.44;98550.83;109338;1253;58955;-73
2023/06/02 00:13:42;;;;;;;14.60;10.70;;;;;;;14.15;91.04;98552.01;109380;1253;58962;-72
2023/06/02 00:16:09;;;;;;;14.10;10.10;;;;;;;14.12;91.43;98558.77;109391;1254;67096;-72
2023/06/02 00:18:37;;;;;;;15.10;10.10;;;;;;;14.08;91.69;98554.64;109395;1253;60321;-73
2023/06/02 00:21:06;;;;;;;19.90;12.70;;;;;;;14.06;92.09;98557.14;109363;1253;64149;-73
2023/06/02 00:23:33;;;;;;;14.50;10.50;;;;;;;14.02;92.93;98553.68;109347;1253;58977;-73
2023/06/02 00:26:00;;;;;;;42.60;25.60;;;;;;;13.98;93.33;98553.86;109375;1253;59546;-73
2023/06/02 00:28:28;;;;;;;33.50;19.70;;;;;;;13.95;93.78;98552.86;109376;1253;66043;-73
2023/06/02 00:30:55;;;;;;;29.60;17.80;;;;;;;13.92;94.28;98551.53;109030;1253;61286;-73
2023/06/02 00:33:21;;;;;;;21.20;13.90;;;;;;;13.89;94.96;98553.06;109358;1253;64159;-72
2023/06/02 00:35:49;;;;;;;20.50;11.80;;;;;;;13.85;95.42;98557.87;109390;1253;59073;-73
2023/06/02 00:38:15;;;;;;;20.80;13.40;;;;;;;13.80;96.06;98557.00;109362;1253;59089;-72
2023/06/02 00:40:42;;;;;;;21.40;14.20;;;;;;;13.77;96.80;98551.99;109346;1253;65976;-71
2023/06/02 00:43:09;;;;;;;21.90;13.10;;;;;;;13.75;97.28;98552.38;109045;1257;59838;-72
2023/06/02 00:45:35;;;;;;;24.60;13.40;;;;;;;13.74;97.53;98551.71;109355;1253;65094;-73
2023/06/02 00:48:02;;;;;;;22.70;12.70;;;;;;;13.74;98.15;98552.59;109368;1253;59042;-73
2023/06/02 00:50:32;;;;;;;19.30;12.50;;;;;;;13.75;98.29;98551.08;109416;1253;59202;-71
2023/06/02 00:52:59;;;;;;;22.10;14.10;;;;;;;13.75;99.02;98551.61;109373;1253;67081;-72
2023/06/02 00:55:30;;;;;;;26.60;14.10;;;;;;;13.73;99.82;98549.13;109367;1253;61226;-72
2023/06/02 00:57:58;;;;;;;17.80;12.00;;;;;;;13.70;99.97;98546.32;109346;1253;65254;-72
2023/06/02 01:00:26;;;;;;;20.60;13.20;;;;;;;13.68;100.00;98542.20;109394;1253;59267;-73
2023/06/02 01:02:53;;;;;;;22.80;12.60;;;;;;;13.65;100.00;98542.52;109347;1253;59055;-73
2023/06/02 01:05:20;;;;;;;18.10;13.50;;;;;;;13.62;100.00;98549.19;109343;1253;66799;-72
2023/06/02 01:07:51;;;;;;;23.70;14.90;;;;;;;13.58;100.00;98548.94;109375;1253;60102;-73
2023/06/02 01:10:18;;;;;;;19.90;14.00;;;;;;;13.52;100.00;98548.23;109357;1253;64959;-73
2023/06/02 01:12:45;;;;;;;18.80;13.50;;;;;;;13.45;100.00;98547.43;109355;1253;58950;-72
2023/06/02 01:15:12;;;;;;;21.40;13.20;;;;;;;13.39;100.00;98545.92;109361;1253;59139;-72
2023/06/02 01:17:45;;;;;;;22.30;13.50;;;;;;;13.34;100.00;98548.86;109374;1253;65765;-73
2023/06/02 01:20:14;;;;;;;20.10;12.00;;;;;;;13.30;100.00;98549.55;109357;1253;60796;-73
2023/06/02 01:22:56;;;;;;;19.20;14.10;;;;;;;13.27;100.00;98549.67;109373;1253;64087;-72
2023/06/02 01:25:27;;;;;;;21.30;12.40;;;;;;;13.23;100.00;98549.11;108966;1258;59123;-72
2023/06/02 01:27:57;;;;;;;19.90;12.20;;;;;;;13.19;100.00;98547.98;108950;1258;59038;-72
2023/06/02 01:30:25;;;;;;;17.80;11.50;;;;;;;13.16;100.00;98548.02;108920;1259;67454;-72
2023/06/02 01:33:04;;;;;;;21.60;12.90;;;;;;;13.13;100.00;98550.98;108947;1258;61268;-72
2023/06/02 01:35:35;;;;;;;17.30;12.60;;;;;;;13.09;100.00;98551.66;108980;1258;65162;-72
2023/06/02 01:38:02;;;;;;;14.80;11.90;;;;;;;13.06;100.00;98549.99;108955;1258;59443;-73
2023/06/02 01:40:30;;;;;;;17.60;11.70;;;;;;;13.02;100.00;98549.77;108844;1259;59268;-73
2023/06/02 01:42:58;;;;;;;16.40;12.20;;;;;;;12.96;100.00;98555.98;108959;1258;65993;-73
2023/06/02 01:45:24;;;;;;;18.50;11.70;;;;;;;12.91;100.00;98558.20;108989;1258;60925;-72
2023/06/02 01:47:51;;;;;;;17.90;11.80;;;;;;;12.87;100.00;98556.39;108940;1258;64082;-72
2023/06/02 01:50:19;;;;;;;18.00;12.80;;;;;;;12.84;100.00;98563.80;108850;1259;59439;-72
2023/06/02 01:52:45;;;;;;;14.90;11.00;;;;;;;12.82;100.00;98566.98;108962;1258;58992;-73
2023/06/02 01:55:12;;;;;;;15.40;10.80;;;;;;;12.79;100.00;98562.61;108990;1258;67165;-72
2023/06/02 01:57:39;;;;;;;16.70;12.90;;;;;;;12.76;100.00;98566.05;108973;1258;61076;-72
2023/06/02 02:00:31;;;;;;;13.80;10.50;;;;;;;12.74;100.00;98570.83;108955;1259;64856;-72
2023/06/02 02:02:57;;;;;;;17.90;11.70;;;;;;;12.71;100.00;98570.70;109133;1253;59045;-72
2023/06/02 02:05:24;;;;;;;14.20;11.50;;;;;;;12.69;100.00;98572.49;109358;1253;59016;-72
2023/06/02 02:07:52;;;;;;;14.60;11.00;;;;;;;12.68;100.00;98572.23;109196;1253;67235;-72
2023/06/02 02:10:18;;;;;;;13.40;11.70;;;;;;;12.65;100.00;98569.45;109371;1253;61095;-72
2023/06/02 02:12:45;;;;;;;13.50;11.10;;;;;;;12.61;100.00;98569.80;109365;1253;65146;-72
2023/06/02 02:15:12;;;;;;;15.70;11.20;;;;;;;12.57;100.00;98571.15;109352;1253;59319;-72
2023/06/02 02:17:45;;;;;;;13.40;11.10;;;;;;;12.55;100.00;98574.36;109357;1253;59040;-72
2023/06/02 02:20:13;;;;;;;14.30;10.90;;;;;;;12.50;100.00;98571.95;109060;1253;66744;-72
2023/06/02 02:22:40;;;;;;;14.40;11.50;;;;;;;12.46;100.00;98571.71;109415;1253;59930;-72
2023/06/02 02:25:07;;;;;;;17.00;12.60;;;;;;;12.43;100.00;98576.41;109359;1253;65103;-72
2023/06/02 02:27:35;;;;;;;13.80;11.30;;;;;;;12.41;100.00;98574.11;109362;1253;59600;-72
2023/06/02 02:30:03;;;;;;;17.40;11.40;;;;;;;12.37;100.00;98575.48;109382;1253;59060;-71
2023/06/02 02:32:33;;;;;;;15.60;12.60;;;;;;;12.32;100.00;98577.98;109351;1253;65944;-71
2023/06/02 02:34:59;;;;;;;15.60;12.30;;;;;;;12.30;100.00;98581.21;109357;1253;61369;-72
2023/06/02 02:37:27;;;;;;;16.90;13.00;;;;;;;12.30;100.00;98580.83;109357;1253;64034;-73
2023/06/02 02:39:53;;;;;;;16.70;12.40;;;;;;;12.29;100.00;98586.77;109308;1253;59050;-72
2023/06/02 02:42:20;;;;;;;14.40;11.60;;;;;;;12.28;100.00;98588.63;109409;1253;58923;-71
2023/06/02 02:44:47;;;;;;;16.00;11.80;;;;;;;12.27;100.00;98595.52;109272;1253;66117;-71
2023/06/02 02:47:13;;;;;;;14.90;11.70;;;;;;;12.25;100.00;98600.09;109373;1253;60752;-72
2023/06/02 02:49:40;;;;;;;15.00;11.80;;;;;;;12.25;100.00;98599.92;109320;1253;64903;-73
2023/06/02 02:52:07;;;;;;;14.00;10.80;;;;;;;12.24;100.00;98600.57;109369;1253;58922;-73
2023/06/02 02:54:33;;;;;;;16.70;12.10;;;;;;;12.23;100.00;98600.96;109390;1253;59010;-73
2023/06/02 02:57:00;;;;;;;15.00;12.10;;;;;;;12.24;100.00;98604.48;109214;1253;66583;-73
2023/06/02 02:59:27;;;;;;;17.10;12.60;;;;;;;12.26;100.00;98605.17;109375;1253;60799;-73
2023/06/02 03:01:53;;;;;;;15.50;11.90;;;;;;;12.30;100.00;98602.05;109368;1253;65102;-71
2023/06/02 03:04:22;;;;;;;13.70;12.30;;;;;;;12.35;100.00;98608.46;109332;1253;59362;-72
2023/06/02 03:06:49;;;;;;;16.40;13.70;;;;;;;12.40;100.00;98608.74;109356;1253;59015;-73
2023/06/02 03:09:16;;;;;;;21.30;14.70;;;;;;;12.46;100.00;98611.09;109360;1253;67202;-72
2023/06/02 03:11:43;;;;;;;21.00;12.90;;;;;;;12.54;100.00;98607.80;109413;1253;60077;-72
2023/06/02 03:14:10;;;;;;;18.30;13.80;;;;;;;12.60;100.00;98606.06;109352;1253;65096;-72
2023/06/02 03:16:41;;;;;;;19.00;13.80;;;;;;;12.66;100.00;98611.27;109330;1253;58981;-72
2023/06/02 03:19:08;;;;;;;16.70;14.30;;;;;;;12.73;100.00;98621.03;109433;1253;59020;-73
2023/06/02 03:21:41;;;;;;;15.90;13.10;;;;;;;12.82;100.00;98622.98;109007;1253;64786;-73
2023/06/02 03:24:19;;;;;;;16.70;13.30;;;;;;;13.06;100.00;98625.64;109358;1253;60138;-71
2023/06/02 03:26:45;;;;;;;17.90;13.70;;;;;;;13.74;100.00;98628.63;109348;1253;64189;-72
2023/06/02 03:29:12;;;;;;;22.00;15.60;;;;;;;14.44;100.00;98629.67;109333;1253;58980;-73
2023/06/02 03:31:43;;;;;;;21.40;15.20;;;;;;;15.07;100.00;98624.39;109381;1253;59868;-73
2023/06/02 03:34:10;;;;;;;23.40;15.70;;;;;;;15.73;100.00;98622.39;109359;1253;67242;-73
2023/06/02 03:36:37;;;;;;;20.30;13.80;;;;;;;16.30;98.91;98626.48;109033;1253;60326;-72
2023/06/02 03:39:09;;;;;;;17.70;13.20;;;;;;;16.83;95.57;98633.75;109017;1253;64339;-72
2023/06/02 03:41:36;;;;;;;18.80;12.50;;;;;;;17.39;92.06;98638.02;109356;1253;58960;-73
2023/06/02 03:44:04;;;;;;;21.80;12.50;;;;;;;17.98;88.67;98637.28;109355;1253;59369;-72
2023/06/02 03:46:31;;;;;;;15.00;12.20;;;;;;;18.52;85.35;98638.27;109373;1253;66719;-72
2023/06/02 03:48:58;;;;;;;15.90;12.00;;;;;;;19.05;82.55;98641.17;109412;1253;60036;-72
2023/06/02 03:51:25;;;;;;;15.40;11.30;;;;;;;19.53;79.70;98639.02;109410;1253;64104;-73
2023/06/02 03:53:51;;;;;;;13.70;11.60;;;;;;;19.93;77.27;98643.88;109349;1253;58940;-73
2023/06/02 03:56:22;;;;;;;15.10;11.80;;;;;;;20.32;74.80;98644.80;109370;1253;59160;-72
2023/06/02 03:58:48;;;;;;;14.50;11.10;;;;;;;20.63;71.74;98646.88;109384;1253;65943;-72
2023/06/02 04:01:16;;;;;;;11.60;10.20;;;;;;;20.84;70.23;98648.51;109399;1253;59778;-71
2023/06/02 04:03:43;;;;;;;13.50;9.90;;;;;;;21.11;69.03;98646.95;109333;1253;65199;-72
2023/06/02 04:06:11;;;;;;;12.60;9.40;;;;;;;21.43;67.95;98648.06;109367;1253;59397;-71
2023/06/02 04:08:38;;;;;;;11.60;10.10;;;;;;;21.72;66.34;98651.92;109383;1253;59035;-72
2023/06/02 04:11:04;;;;;;;12.10;10.10;;;;;;;22.02;65.41;98655.52;109352;1253;67286;-72
2023/06/02 04:13:31;;;;;;;10.80;9.70;;;;;;;22.29;64.38;98659.54;109356;1253;61185;-72
2023/06/02 04:15:58;;;;;;;11.20;9.90;;;;;;;22.56;63.49;98663.23;109379;1253;65302;-72
2023/06/02 04:18:27;;;;;;;11.10;9.20;;;;;;;22.74;62.23;98665.52;109346;1253;58979;-72
2023/06/02 04:20:54;;;;;;;12.30;10.10;;;;;;;22.91;61.03;98665.45;109417;1253;59050;-72
2023/06/02 04:23:21;;;;;;;13.40;9.90;;;;;;;23.06;60.16;98661.56;109386;1253;66957;-72
2023/06/02 04:25:48;;;;;;;18.20;10.20;;;;;;;23.31;59.30;98663.69;109356;1253;61130;-72
2023/06/02 04:28:16;;;;;;;13.60;9.80;;;;;;;23.49;57.60;98659.79;109030;1253;65021;-72
2023/06/02 04:30:43;;;;;;;12.90;9.00;;;;;;;23.46;57.57;98655.83;109053;1253;58965;-72
2023/06/02 04:33:12;;;;;;;11.00;9.00;;;;;;;23.66;56.91;98654.39;109392;1253;58909;-72
2023/06/02 04:35:38;;;;;;;10.30;8.60;;;;;;;23.86;55.64;98650.45;109389;1253;67103;-73
2023/06/02 04:38:06;;;;;;;10.80;9.10;;;;;;;24.02;55.01;98647.81;109397;1253;59734;-72
2023/06/02 04:40:32;;;;;;;9.90;8.90;;;;;;;24.12;53.76;98647.81;109358;1253;64855;-72
2023/06/02 04:42:59;;;;;;;11.20;9.60;;;;;;;24.14;53.49;98645.64;109350;1253;59014;-72
2023/06/02 04:45:26;;;;;;;12.80;9.80;;;;;;;24.28;53.19;98649.71;109060;1253;59464;-72
2023/06/02 04:47:52;;;;;;;9.60;8.60;;;;;;;24.38;52.09;98651.29;109329;1253;67146;-72
2023/06/02 04:50:19;;;;;;;11.60;8.90;;;;;;;24.39;51.36;98656.61;109375;1254;61146;-72
2023/06/02 04:52:45;;;;;;;10.60;9.10;;;;;;;24.42;51.29;98655.42;109359;1253;65132;-72
2023/06/02 04:55:13;;;;;;;10.40;9.30;;;;;;;24.55;50.67;98654.10;109361;1253;59005;-72
2023/06/02 04:57:40;;;;;;;13.50;8.80;;;;;;;24.58;49.78;98657.69;109352;1253;59065;-72
2023/06/02 05:00:08;;;;;;;12.90;9.80;;;;;;;24.52;49.54;98656.69;109365;1253;66117;-71
2023/06/02 05:02:35;;;;;;;10.60;8.90;;;;;;;24.63;49.75;98659.09;109162;1253;61065;-72
2023/06/02 05:05:02;;;;;;;11.90;9.40;;;;;;;24.75;49.23;98662.31;109356;1253;62446;-72
2023/06/02 05:07:29;;;;;;;11.30;8.60;;;;;;;24.89;48.86;98663.45;109064;1253;59038;-72
2023/06/02 05:09:56;;;;;;;10.50;8.80;;;;;;;25.04;48.36;98667.59;109362;1253;59033;-73
2023/06/02 05:12:25;;;;;;;13.40;9.00;;;;;;;25.04;48.09;98667.59;109402;1253;66760;-72
2023/06/02 05:14:53;;;;;;;11.20;8.30;;;;;;;25.12;47.89;98669.64;109407;1253;59747;-72
2023/06/02 05:17:24;;;;;;;8.90;8.00;;;;;;;25.30;47.88;98672.73;109372;1253;65252;-72
2023/06/02 05:19:53;;;;;;;11.60;9.00;;;;;;;25.57;47.80;98674.11;109354;1256;58946;-72
2023/06/02 05:22:21;;;;;;;11.50;8.50;;;;;;;25.86;47.44;98676.11;109201;1253;59098;-72
2023/06/02 05:24:48;;;;;;;12.70;8.60;;;;;;;26.07;46.66;98675.02;109395;1253;66145;-72
2023/06/02 05:27:14;;;;;;;12.10;8.80;;;;;;;26.16;45.83;98673.51;109373;1253;60084;-73
2023/06/02 05:29:41;;;;;;;10.20;8.60;;;;;;;26.30;45.76;98674.85;109379;1253;64133;-72
2023/06/02 05:32:08;;;;;;;13.40;8.90;;;;;;;26.45;45.41;98675.45;109411;1253;59030;-73
2023/06/02 05:34:35;;;;;;;11.80;7.60;;;;;;;26.47;44.59;98681.25;109382;1253;59074;-73
2023/06/02 05:37:02;;;;;;;9.60;7.40;;;;;;;26.40;44.44;98682.56;109360;1253;66211;-72
2023/06/02 05:39:29;;;;;;;11.90;8.20;;;;;;;26.42;44.72;98689.29;109390;1253;60019;-84
2023/06/02 05:41:56;;;;;;;9.10;8.20;;;;;;;26.53;44.95;98687.73;109290;1253;65279;-79
2023/06/02 05:44:22;;;;;;;10.00;8.30;;;;;;;26.78;44.55;98690.23;109405;1253;58957;-83
2023/06/02 05:46:49;;;;;;;9.80;7.90;;;;;;;26.85;43.79;98692.72;109389;1253;58889;-91
2023/06/02 05:49:16;;;;;;;10.20;7.40;;;;;;;26.69;43.01;98688.39;109415;1253;64779;-85
2023/06/02 05:51:42;;;;;;;16.10;7.90;;;;;;;26.55;42.70;98690.00;109406;1253;60297;-70
2023/06/02 05:54:09;;;;;;;11.30;6.90;;;;;;;26.31;42.69;98691.90;109363;1253;65291;-71
2023/06/02 05:56:36;;;;;;;9.50;6.50;;;;;;;26.35;42.76;98692.31;109369;1253;58982;-72
2023/06/02 05:59:04;;;;;;;10.40;7.10;;;;;;;26.47;42.56;98689.69;109386;1253;59066;-72
2023/06/02 06:01:30;;;;;;;7.70;5.80;;;;;;;26.41;41.72;98692.81;109405;1253;67169;-72
2023/06/02 06:03:57;;;;;;;10.30;6.50;;;;;;;26.18;41.90;98694.93;109371;1253;60143;-72
2023/06/02 06:06:23;;;;;;;11.60;6.50;;;;;;;26.29;42.40;98695.52;109391;1253;65217;-71
2023/06/02 06:08:50;;;;;;;8.40;6.40;;;;;;;26.31;42.41;98693.67;109345;1253;59097;-72
2023/06/02 06:11:17;;;;;;;6.70;5.40;;;;;;;26.41;42.59;98693.36;109440;1253;59036;-73
2023/06/02 06:13:43;;;;;;;8.90;6.70;;;;;;;26.44;42.10;98695.13;109400;1253;66025;-71
2023/06/02 06:16:10;;;;;;;12.40;7.50;;;;;;;26.45;42.69;98692.58;109353;1253;61116;-71
2023/06/02 06:18:37;;;;;;;12.70;7.60;;;;;;;26.56;42.47;98698.21;109379;1253;64069;-72
2023/06/02 06:21:04;;;;;;;12.80;7.80;;;;;;;26.58;42.88;98693.24;109328;1253;58944;-71
2023/06/02 06:23:30;;;;;;;19.60;8.30;;;;;;;26.50;42.61;98698.45;109345;1256;59151;-71
2023/06/02 06:25:57;;;;;;;12.50;8.70;;;;;;;26.34;42.73;98702.04;109377;1253;66026;-71
2023/06/02 06:28:24;;;;;;;11.20;8.40;;;;;;;26.41;43.05;98703.76;109411;1253;59853;-71
2023/06/02 06:30:52;;;;;;;11.80;8.50;;;;;;;26.60;42.91;98705.34;109386;1253;63730;-72
2023/06/02 06:33:19;;;;;;;10.20;8.10;;;;;;;26.53;42.39;98710.59;109397;1253;59020;-71
2023/06/02 06:35:46;;;;;;;11.70;7.60;;;;;;;26.50;42.40;98715.23;109371;1253;59014;-72
2023/06/02 06:38:13;;;;;;;10.70;8.30;;;;;;;26.30;41.77;98718.60;109394;1253;67468;-72
2023/06/02 06:40:39;;;;;;;10.10;6.70;;;;;;;26.28;42.28;98715.86;109265;1253;173303;-71
2023/06/02 06:43:06;;;;;;;7.30;5.70;;;;;;;26.30;41.68;98715.23;109374;1253;64113;-76
2023/06/02 06:45:33;;;;;;;9.50;6.60;;;;;;;26.01;41.12;98712.83;109361;1253;58971;-72
2023/06/02 06:48:00;;;;;;;11.30;6.80;;;;;;;25.69;40.91;98716.46;109413;1253;59017;-74
2023/06/02 06:50:27;;;;;;;8.40;5.90;;;;;;;25.47;40.91;98717.50;109415;1253;66053;-70
2023/06/02 06:52:54;;;;;;;9.00;6.20;;;;;;;25.26;41.32;98721.25;109410;1253;60318;-70
2023/06/02 06:55:20;;;;;;;8.90;7.30;;;;;;;25.23;41.67;98727.69;109375;1253;64171;-70
2023/06/02 06:57:47;;;;;;;8.60;7.60;;;;;;;25.22;41.61;98722.56;109427;1253;59370;-69
2023/06/02 07:00:14;;;;;;;10.00;6.90;;;;;;;25.12;41.82;98724.39;109027;1253;59297;-70
2023/06/02 07:02:43;;;;;;;9.80;6.10;;;;;;;25.13;42.03;98726.54;109408;1253;66793;-69
2023/06/02 07:05:10;;;;;;;7.40;6.40;;;;;;;25.02;41.00;98725.64;109382;1253;61071;-70
2023/06/02 07:07:36;;;;;;;8.80;5.20;;;;;;;24.70;41.21;98728.27;109369;1253;65104;-70
2023/06/02 07:10:03;;;;;;;9.00;6.00;;;;;;;24.65;41.80;98730.20;109404;1253;59430;-70
2023/06/02 07:12:30;;;;;;;8.90;5.00;;;;;;;24.66;41.60;98732.36;109426;1253;58874;-69
2023/06/02 07:14:56;;;;;;;9.80;5.30;;;;;;;24.54;41.19;98733.69;109428;1253;65907;-69
2023/06/02 07:17:23;;;;;;;9.20;4.90;;;;;;;24.40;41.43;98736.98;109448;1253;61018;-71
2023/06/02 07:19:49;;;;;;;6.70;5.00;;;;;;;24.39;41.96;98737.29;109391;1253;64249;-69
2023/06/02 07:22:16;;;;;;;6.10;4.80;;;;;;;24.36;41.56;98737.73;109436;1253;59215;-69
2023/06/02 07:24:43;;;;;;;8.00;5.10;;;;;;;24.08;41.56;98739.49;109411;1253;58993;-69
2023/06/02 07:27:11;;;;;;;7.80;5.40;;;;;;;23.73;42.30;98738.73;109432;1253;67106;-70
2023/06/02 07:29:38;;;;;;;8.70;5.50;;;;;;;23.53;43.12;98739.67;109423;1253;60877;-70
2023/06/02 07:32:05;;;;;;;9.40;5.60;;;;;;;23.34;43.83;98738.56;109390;1253;64928;-69
2023/06/02 07:34:31;;;;;;;10.90;5.40;;;;;;;23.24;43.96;98737.35;109379;1253;59118;-70
2023/06/02 07:37:00;;;;;;;9.70;5.80;;;;;;;23.22;44.43;98735.91;109437;1253;59079;-69
2023/06/02 07:39:27;;;;;;;7.20;4.80;;;;;;;23.30;45.03;98732.04;109391;1253;65826;-69
2023/06/02 07:41:54;;;;;;;7.40;5.10;;;;;;;23.30;45.06;98732.79;109483;1253;59846;-69
2023/06/02 07:44:21;;;;;;;9.70;5.40;;;;;;;23.17;45.30;98733.56;109399;1253;64146;-69
2023/06/02 07:46:47;;;;;;;10.50;6.10;;;;;;;23.13;45.59;98732.70;109428;1253;59197;-70
2023/06/02 07:49:14;;;;;;;9.60;5.40;;;;;;;23.07;45.45;98738.66;109431;1253;58937;-70
2023/06/02 07:51:41;;;;;;;8.60;6.00;;;;;;;22.93;45.06;98737.52;109404;1253;67017;-70
2023/06/02 07:54:07;;;;;;;6.40;5.50;;;;;;;22.77;45.42;98737.01;109434;1253;61096;-70
2023/06/02 07:56:34;;;;;;;9.30;5.20;;;;;;;22.78;45.84;98739.14;109413;1253;64137;-70
2023/06/02 07:59:01;;;;;;;6.60;4.90;;;;;;;22.81;46.21;98739.07;109381;1253;58959;-70
2023/06/02 08:01:27;;;;;;;9.10;5.80;;;;;;;22.77;46.00;98740.64;109431;1253;59094;-70
2023/06/02 08:03:54;;;;;;;10.60;6.00;;;;;;;22.61;45.90;98742.75;109415;1253;67162;-70
2023/06/02 08:06:21;;;;;;;7.70;5.50;;;;;;;22.46;45.86;98741.35;109408;1253;61085;-70
2023/06/02 08:08:47;;;;;;;6.90;5.20;;;;;;;22.47;46.57;98737.40;109128;1253;70890;-70
2023/06/02 08:11:14;;;;;;;11.80;6.10;;;;;;;22.63;46.83;98736.55;109434;1253;58874;-70
2023/06/02 08:13:40;;;;;;;9.90;6.00;;;;;;;22.77;47.06;98740.14;109419;1253;59279;-70
2023/06/02 08:16:07;;;;;;;7.40;5.40;;;;;;;22.93;46.63;98744.90;109409;1253;65951;-70
2023/06/02 08:18:34;;;;;;;8.80;5.70;;;;;;;23.06;46.58;98745.02;109406;1253;61507;-70
2023/06/02 08:21:01;;;;;;;8.40;5.80;;;;;;;23.23;46.32;98740.19;109434;1253;65236;-70
2023/06/02 08:23:27;;;;;;;8.40;5.40;;;;;;;23.43;46.11;98739.14;109393;1253;59003;-71
2023/06/02 08:25:54;;;;;;;11.60;5.60;;;;;;;23.36;45.59;98743.20;109453;1253;59014;-70
2023/06/02 08:28:24;;;;;;;10.20;5.60;;;;;;;23.03;45.47;98746.63;109445;1253;66134;-70
2023/06/02 08:30:52;;;;;;;9.30;5.30;;;;;;;22.88;46.04;98745.31;109459;1253;61191;-70
2023/06/02 08:33:21;;;;;;;8.40;5.20;;;;;;;23.06;46.69;98746.11;109410;1253;65032;-70
2023/06/02 08:35:51;;;;;;;8.20;5.30;;;;;;;23.27;46.51;98741.62;109035;1253;59329;-70
2023/06/02 08:38:18;;;;;;;7.60;5.20;;;;;;;23.45;45.73;98741.75;109451;1253;59040;-69
2023/06/02 08:40:47;;;;;;;7.90;4.80;;;;;;;23.50;45.40;98741.65;109479;1253;65966;-70
2023/06/02 08:43:15;;;;;;;6.30;5.40;;;;;;;23.22;45.52;98742.90;109496;1253;61071;-70
2023/06/02 08:45:43;;;;;;;9.30;5.50;;;;;;;23.12;45.52;98748.25;109058;1253;65130;-69
2023/06/02 08:48:16;;;;;;;9.70;5.40;;;;;;;23.14;45.09;98745.22;109410;1253;59032;-70
2023/06/02 08:50:52;;;;;;;8.30;4.90;;;;;;;23.27;45.01;98740.95;109444;1253;59997;-70
2023/06/02 08:53:23;;;;;;;6.00;5.30;;;;;;;23.48;45.26;98734.88;109388;1253;66368;-70
2023/06/02 08:55:50;;;;;;;9.10;5.30;;;;;;;23.74;44.64;98734.52;109146;1253;60173;-70
2023/06/02 08:58:17;;;;;;;9.60;5.30;;;;;;;23.61;44.55;98738.67;109398;1253;63797;-70
2023/06/02 09:00:43;;;;;;;7.20;4.70;;;;;;;23.35;44.62;98743.38;109422;1253;59041;-70
2023/06/02 09:03:13;;;;;;;7.90;5.40;;;;;;;23.36;44.96;98747.70;109414;1253;58986;-70
2023/06/02 09:05:41;;;;;;;7.30;5.20;;;;;;;23.66;45.26;98744.05;109449;1253;67041;-70
2023/06/02 09:08:10;;;;;;;8.30;6.50;;;;;;;24.02;44.75;98747.48;109457;1253;60092;-75
2023/06/02 09:10:40;;;;;;;10.70;5.50;;;;;;;23.99;44.25;98748.08;109401;1258;65333;-70
2023/06/02 09:13:07;;;;;;;;;;;;;;;24.16;44.07;98745.89;109460;1253;58976;-70
2023/06/02 09:15:35;;;;;;;10.50;6.00;;;;;;;24.27;43.33;98747.04;109438;1253;59139;-70
2023/06/02 09:18:11;;;;;;;9.40;5.50;;;;;;;23.99;43.19;98750.23;109435;1253;67114;-70
2023/06/02 09:20:40;;;;;;;8.90;5.40;;;;;;;23.93;43.92;98750.88;109415;1253;60162;-71
2023/06/02 09:23:06;;;;;;;10.10;5.60;;;;;;;24.04;43.92;98751.10;109460;1253;62917;-71
2023/06/02 09:25:35;;;;;;;7.50;4.90;;;;;;;24.27;44.17;98751.59;109433;1253;58992;-71
2023/06/02 09:28:02;;;;;;;6.70;5.20;;;;;;;24.49;43.95;98747.69;109415;1253;59055;-70
2023/06/02 09:30:29;;;;;;;9.90;5.30;;;;;;;24.44;43.17;98749.04;109420;1253;67513;-70
2023/06/02 09:33:01;;;;;;;8.30;5.80;;;;;;;24.20;42.76;98752.25;109440;1253;60742;-71
2023/06/02 09:35:36;;;;;;;10.10;5.20;;;;;;;23.87;42.51;98749.61;109021;1253;64854;-71
2023/06/02 09:38:07;;;;;;;8.00;5.30;;;;;;;23.72;42.87;98750.05;109386;1253;58995;-71
2023/06/02 09:40:35;;;;;;;7.70;5.20;;;;;;;23.70;43.18;98748.85;109432;1253;59039;-71
2023/06/02 09:43:04;;;;;;;8.30;4.80;;;;;;;23.70;43.40;98747.71;109474;1253;67085;-70
2023/06/02 09:45:32;;;;;;;8.30;5.20;;;;;;;23.66;43.69;98748.69;109446;1253;59993;-70
2023/06/02 09:47:59;;;;;;;8.90;5.20;;;;;;;23.54;43.33;98752.40;109412;1253;65233;-70
2023/06/02 09:50:32;;;;;;;6.30;5.20;;;;;;;23.46;43.43;98747.12;109408;1253;58964;-70
2023/06/02 09:53:01;;;;;;;8.50;5.30;;;;;;;23.41;43.61;98744.94;109410;1253;59035;-70
2023/06/02 09:55:31;;;;;;;6.50;5.00;;;;;;;23.49;43.83;98743.61;109468;1253;66149;-70
2023/06/02 09:57:58;;;;;;;6.90;5.30;;;;;;;23.57;43.80;98743.57;109425;1253;60525;-70
2023/06/02 10:00:25;;;;;;;6.50;4.50;;;;;;;23.66;44.45;98748.02;109414;1253;65418;-70
2023/06/02 10:02:52;;;;;;;8.00;4.80;;;;;;;23.81;44.50;98748.45;109406;1253;59035;-70
2023/06/02 10:05:21;;;;;;;8.60;4.70;;;;;;;23.82;43.60;98750.52;109424;1253;59050;-70
2023/06/02 10:07:59;;;;;;;9.50;5.00;;;;;;;23.66;43.28;98754.52;109468;1253;67043;-71
2023/06/02 10:10:53;;;;;;;7.00;4.60;;;;;;;23.54;43.30;98754.79;109408;1253;61015;-70
2023/06/02 10:13:57;;;;;;;6.40;4.90;;;;;;;23.31;43.39;98755.09;109415;1253;63774;-70
2023/06/02 10:16:57;;;;;;;8.60;5.30;;;;;;;23.13;43.67;98759.98;109438;1253;59042;-70
2023/06/02 10:19:43;;;;;;;6.70;5.30;;;;;;;23.03;43.85;98758.70;109423;1253;58927;-71
2023/06/02 10:22:54;;;;;;;8.10;4.80;;;;;;;22.95;44.38;98756.56;109457;1253;67194;-70
2023/06/02 10:25:41;;;;;;;7.70;4.20;;;;;;;22.93;44.70;98754.48;108808;1262;59846;-70
2023/06/02 10:28:08;;;;;;;8.90;4.60;;;;;;;22.79;44.69;98754.38;108795;1262;64110;-71
2023/06/02 10:30:35;;;;;;;6.60;4.80;;;;;;;22.59;44.86;98753.16;108798;1262;59416;-70
2023/06/02 10:33:02;;;;;;;10.10;4.50;;;;;;;22.43;44.90;98760.36;108799;1261;59136;-70
2023/06/02 10:36:01;;;;;;;10.10;5.50;;;;;;;22.40;45.20;98763.27;108812;1262;65996;-69
2023/06/02 10:38:31;;;;;;;7.30;4.80;;;;;;;22.43;45.62;98766.73;108714;1262;60914;-69
2023/06/02 10:40:59;;;;;;;13.10;4.70;;;;;;;22.51;45.64;98766.62;108759;1261;64971;-71
2023/06/02 10:43:25;;;;;;;7.00;4.20;;;;;;;22.66;45.57;98770.27;108665;1262;59888;-71
2023/06/02 10:45:54;;;;;;;8.60;4.80;;;;;;;22.79;44.82;98769.17;108788;1261;59147;-69
2023/06/02 10:48:38;;;;;;;7.20;3.90;;;;;;;22.88;44.73;98764.40;108776;1262;67168;-70
2023/06/02 10:51:06;;;;;;;5.30;4.30;;;;;;;23.03;44.35;98768.67;108788;1262;60040;-70
2023/06/02 10:53:53;;;;;;;8.00;4.30;;;;;;;23.23;44.63;98767.51;108793;1262;65033;-70
2023/06/02 10:56:35;;;;;;;9.30;4.20;;;;;;;23.59;44.22;98766.59;108778;1262;59162;-71
2023/06/02 10:59:02;;;;;;;7.50;4.00;;;;;;;23.86;43.47;98769.17;108789;1261;58864;-71
2023/06/02 11:01:49;;;;;;;5.90;3.40;;;;;;;23.83;42.78;98770.92;108962;1253;67047;-70
2023/06/02 11:04:27;;;;;;;5.90;3.90;;;;;;;23.97;43.00;98766.41;109480;1253;61086;-71
2023/06/02 11:07:18;;;;;;;6.80;4.30;;;;;;;24.00;42.24;98765.85;109140;1253;63713;-70
2023/06/02 11:09:48;;;;;;;9.10;4.00;;;;;;;23.97;42.29;98767.70;109425;1253;59041;-70
2023/06/02 11:12:15;;;;;;;;;;;;;;;23.94;42.12;98770.53;109455;1253;58914;-70
2023/06/02 11:15:01;;;;;;;7.20;4.10;;;;;;;23.88;42.03;98770.84;109479;1253;67333;-70
2023/06/02 11:17:29;;;;;;;4.80;4.00;;;;;;;23.88;42.02;98771.02;109430;1253;60057;-69
2023/06/02 11:19:57;;;;;;;7.50;4.20;;;;;;;23.86;41.77;98767.98;109440;1253;63751;-70
2023/06/02 11:22:25;;;;;;;4.70;3.80;;;;;;;23.86;42.17;98770.70;109428;1253;59043;-69
2023/06/02 11:24:52;;;;;;;6.50;4.00;;;;;;;23.87;41.85;98765.73;109413;1253;60438;-70